sensor_id;sensor_type;location;lat;lon;timestamp;P1;durP1;ratioP1;P2;durP2;ratioP2
30036;SDS011;36325;51.512;-0.382;2023-08-21T00:00:39;17.50;;;4.38;;
30036;SDS011;36325;51.512;-0.382;2023-08-21T00:03:06;15.07;;;4.75;;
30036;SDS011;36325;51.512;-0.382;2023-08-21T00:05:34;20.65;;;5.28;;
30036;SDS011;36325;51.512;-0.382;2023-08-21T00:08:01;20.13;;;4.80;;
30036;SDS011;36325;51.512;-0.382;2023-08-21T00:10:30;10.88;;;3.97;;
30036;SDS011;36325;51.512;-0.382;2023-08-21T00:12:58;14.98;;;4.60;;
30036;SDS011;36325;51.512;-0.382;2023-08-21T00:15:25;19.02;;;5.30;;
30036;SDS011;36325;51.512;-0.382;2023-08-21T00:17:53;17.95;;;5.50;;
30036;SDS011;36325;51.512;-0.382;2023-08-21T00:20:21;14.38;;;4.28;;
30036;SDS011;36325;51.512;-0.382;2023-08-21T00:22:48;18.60;;;5.07;;
30036;SDS011;36325;51.512;-0.382;2023-08-21T00:25:15;11.15;;;5.60;;
30036;SDS011;36325;51.512;-0.382;2023-08-21T00:27:47;9.63;;;4.20;;
30036;SDS011;36325;51.512;-0.382;2023-08-21T00:30:15;13.98;;;4.65;;
30036;SDS011;36325;51.512;-0.382;2023-08-21T00:32:42;13.30;;;4.50;;
30036;SDS011;36325;51.512;-0.382;2023-08-21T00:35:09;21.45;;;5.50;;
30036;SDS011;36325;51.512;-0.382;2023-08-21T00:37:39;12.93;;;5.03;;
30036;SDS011;36325;51.512;-0.382;2023-08-21T00:40:07;22.80;;;6.15;;
30036;SDS011;36325;51.512;-0.382;2023-08-21T00:42:35;16.92;;;5.55;;
30036;SDS011;36325;51.512;-0.382;2023-08-21T00:45:04;14.63;;;5.07;;
30036;SDS011;36325;51.512;-0.382;2023-08-21T00:47:34;11.25;;;4.75;;
30036;SDS011;36325;51.512;-0.382;2023-08-21T00:50:03;19.92;;;5.20;;
30036;SDS011;36325;51.512;-0.382;2023-08-21T00:52:34;15.45;;;5.15;;
30036;SDS011;36325;51.512;-0.382;2023-08-21T00:55:05;22.38;;;6.05;;
30036;SDS011;36325;51.512;-0.382;2023-08-21T00:57:34;20.02;;;5.80;;
30036;SDS011;36325;51.512;-0.382;2023-08-21T01:00:05;15.30;;;5.83;;
30036;SDS011;36325;51.512;-0.382;2023-08-21T01:02:36;22.20;;;6.70;;
30036;SDS011;36325;51.512;-0.382;2023-08-21T01:05:05;20.80;;;6.13;;
30036;SDS011;36325;51.512;-0.382;2023-08-21T01:07:36;18.67;;;6.60;;
30036;SDS011;36325;51.512;-0.382;2023-08-21T01:10:12;18.70;;;6.63;;
30036;SDS011;36325;51.512;-0.382;2023-08-21T01:15:29;16.17;;;5.40;;
30036;SDS011;36325;51.512;-0.382;2023-08-21T01:17:59;15.85;;;5.70;;
30036;SDS011;36325;51.512;-0.382;2023-08-21T01:20:27;25.27;;;6.80;;
30036;SDS011;36325;51.512;-0.382;2023-08-21T01:22:55;16.95;;;5.53;;
30036;SDS011;36325;51.512;-0.382;2023-08-21T01:25:22;15.45;;;6.25;;
30036;SDS011;36325;51.512;-0.382;2023-08-21T01:27:50;17.67;;;6.95;;
30036;SDS011;36325;51.512;-0.382;2023-08-21T01:30:18;14.05;;;5.95;;
30036;SDS011;36325;51.512;-0.382;2023-08-21T01:32:57;21.50;;;6.05;;
30036;SDS011;36325;51.512;-0.382;2023-08-21T01:35:28;14.52;;;6.50;;
30036;SDS011;36325;51.512;-0.382;2023-08-21T01:37:56;21.42;;;6.63;;
30036;SDS011;36325;51.512;-0.382;2023-08-21T01:40:26;18.70;;;6.43;;
30036;SDS011;36325;51.512;-0.382;2023-08-21T01:42:53;16.83;;;6.03;;
30036;SDS011;36325;51.512;-0.382;2023-08-21T01:45:21;17.75;;;8.38;;
30036;SDS011;36325;51.512;-0.382;2023-08-21T01:47:50;19.27;;;6.03;;
30036;SDS011;36325;51.512;-0.382;2023-08-21T01:50:18;16.90;;;6.72;;
30036;SDS011;36325;51.512;-0.382;2023-08-21T01:52:45;16.35;;;6.15;;
30036;SDS011;36325;51.512;-0.382;2023-08-21T01:55:13;23.33;;;7.00;;
30036;SDS011;36325;51.512;-0.382;2023-08-21T01:57:41;18.40;;;7.03;;
30036;SDS011;36325;51.512;-0.382;2023-08-21T02:00:09;25.92;;;6.60;;
30036;SDS011;36325;51.512;-0.382;2023-08-21T02:02:40;22.48;;;7.20;;
30036;SDS011;36325;51.512;-0.382;2023-08-21T02:05:08;21.13;;;7.90;;
30036;SDS011;36325;51.512;-0.382;2023-08-21T02:07:37;17.40;;;6.50;;
30036;SDS011;36325;51.512;-0.382;2023-08-21T02:10:04;21.50;;;6.93;;
30036;SDS011;36325;51.512;-0.382;2023-08-21T02:12:32;19.63;;;7.03;;
30036;SDS011;36325;51.512;-0.382;2023-08-21T02:15:03;12.20;;;6.38;;
30036;SDS011;36325;51.512;-0.382;2023-08-21T02:17:31;21.15;;;6.95;;
30036;SDS011;36325;51.512;-0.382;2023-08-21T02:19:59;20.23;;;7.03;;
30036;SDS011;36325;51.512;-0.382;2023-08-21T02:22:27;23.17;;;6.80;;
30036;SDS011;36325;51.512;-0.382;2023-08-21T02:24:54;26.73;;;8.30;;
30036;SDS011;36325;51.512;-0.382;2023-08-21T02:27:22;27.17;;;8.10;;
30036;SDS011;36325;51.512;-0.382;2023-08-21T02:29:49;20.52;;;7.07;;
30036;SDS011;36325;51.512;-0.382;2023-08-21T02:32:16;17.40;;;6.55;;
30036;SDS011;36325;51.512;-0.382;2023-08-21T02:34:45;26.15;;;6.47;;
30036;SDS011;36325;51.512;-0.382;2023-08-21T02:37:14;17.40;;;6.90;;
30036;SDS011;36325;51.512;-0.382;2023-08-21T02:39:41;24.35;;;6.57;;
30036;SDS011;36325;51.512;-0.382;2023-08-21T02:42:10;19.75;;;6.85;;
30036;SDS011;36325;51.512;-0.382;2023-08-21T02:44:40;15.00;;;6.65;;
30036;SDS011;36325;51.512;-0.382;2023-08-21T02:47:08;13.52;;;6.35;;
30036;SDS011;36325;51.512;-0.382;2023-08-21T02:49:36;22.15;;;7.50;;
30036;SDS011;36325;51.512;-0.382;2023-08-21T02:52:04;20.55;;;8.40;;
30036;SDS011;36325;51.512;-0.382;2023-08-21T02:54:33;22.45;;;8.40;;
30036;SDS011;36325;51.512;-0.382;2023-08-21T02:57:01;29.67;;;9.15;;
30036;SDS011;36325;51.512;-0.382;2023-08-21T02:59:30;25.50;;;8.82;;
30036;SDS011;36325;51.512;-0.382;2023-08-21T03:01:58;22.60;;;8.57;;
30036;SDS011;36325;51.512;-0.382;2023-08-21T03:04:25;21.42;;;8.43;;
30036;SDS011;36325;51.512;-0.382;2023-08-21T03:06:53;30.45;;;9.43;;
30036;SDS011;36325;51.512;-0.382;2023-08-21T03:09:20;24.38;;;9.90;;
30036;SDS011;36325;51.512;-0.382;2023-08-21T03:11:48;22.33;;;8.80;;
30036;SDS011;36325;51.512;-0.382;2023-08-21T03:14:16;26.48;;;10.15;;
30036;SDS011;36325;51.512;-0.382;2023-08-21T03:16:43;30.00;;;9.57;;
30036;SDS011;36325;51.512;-0.382;2023-08-21T03:19:11;26.20;;;9.75;;
30036;SDS011;36325;51.512;-0.382;2023-08-21T03:21:38;27.60;;;9.90;;
30036;SDS011;36325;51.512;-0.382;2023-08-21T03:24:06;24.45;;;9.63;;
30036;SDS011;36325;51.512;-0.382;2023-08-21T03:26:34;29.88;;;10.65;;
30036;SDS011;36325;51.512;-0.382;2023-08-21T03:29:02;20.02;;;9.80;;
30036;SDS011;36325;51.512;-0.382;2023-08-21T03:31:30;25.15;;;10.52;;
30036;SDS011;36325;51.512;-0.382;2023-08-21T03:33:57;26.02;;;10.20;;
30036;SDS011;36325;51.512;-0.382;2023-08-21T03:36:24;24.52;;;8.40;;
30036;SDS011;36325;51.512;-0.382;2023-08-21T03:39:00;26.92;;;9.35;;
30036;SDS011;36325;51.512;-0.382;2023-08-21T03:41:31;25.05;;;9.07;;
30036;SDS011;36325;51.512;-0.382;2023-08-21T03:43:59;26.55;;;8.77;;
30036;SDS011;36325;51.512;-0.382;2023-08-21T03:46:27;24.20;;;9.18;;
30036;SDS011;36325;51.512;-0.382;2023-08-21T03:48:54;19.42;;;7.78;;
30036;SDS011;36325;51.512;-0.382;2023-08-21T03:51:22;23.92;;;8.18;;
30036;SDS011;36325;51.512;-0.382;2023-08-21T03:53:49;29.13;;;9.65;;
30036;SDS011;36325;51.512;-0.382;2023-08-21T03:56:17;24.23;;;8.45;;
30036;SDS011;36325;51.512;-0.382;2023-08-21T03:58:46;32.33;;;8.77;;
30036;SDS011;36325;51.512;-0.382;2023-08-21T04:01:15;25.98;;;8.65;;
30036;SDS011;36325;51.512;-0.382;2023-08-21T04:03:42;22.75;;;7.65;;
30036;SDS011;36325;51.512;-0.382;2023-08-21T04:06:11;20.65;;;7.55;;
30036;SDS011;36325;51.512;-0.382;2023-08-21T04:08:39;20.13;;;7.43;;
30036;SDS011;36325;51.512;-0.382;2023-08-21T04:11:06;31.58;;;7.70;;
30036;SDS011;36325;51.512;-0.382;2023-08-21T04:13:34;20.33;;;7.82;;
30036;SDS011;36325;51.512;-0.382;2023-08-21T04:16:01;21.77;;;8.20;;
30036;SDS011;36325;51.512;-0.382;2023-08-21T04:18:29;24.15;;;7.32;;
30036;SDS011;36325;51.512;-0.382;2023-08-21T04:21:07;23.70;;;8.07;;
30036;SDS011;36325;51.512;-0.382;2023-08-21T04:23:34;24.60;;;8.23;;
30036;SDS011;36325;51.512;-0.382;2023-08-21T04:26:03;17.90;;;7.03;;
30036;SDS011;36325;51.512;-0.382;2023-08-21T04:28:31;16.85;;;7.40;;
30036;SDS011;36325;51.512;-0.382;2023-08-21T04:31:03;21.80;;;7.70;;
30036;SDS011;36325;51.512;-0.382;2023-08-21T04:33:34;19.13;;;8.20;;
30036;SDS011;36325;51.512;-0.382;2023-08-21T04:36:02;19.88;;;7.88;;
30036;SDS011;36325;51.512;-0.382;2023-08-21T04:38:30;21.67;;;8.88;;
30036;SDS011;36325;51.512;-0.382;2023-08-21T04:41:08;21.70;;;7.93;;
30036;SDS011;36325;51.512;-0.382;2023-08-21T04:46:10;16.52;;;6.63;;
30036;SDS011;36325;51.512;-0.382;2023-08-21T04:48:42;20.50;;;8.02;;
30036;SDS011;36325;51.512;-0.382;2023-08-21T04:51:11;23.42;;;8.18;;
30036;SDS011;36325;51.512;-0.382;2023-08-21T04:53:38;19.67;;;7.55;;
30036;SDS011;36325;51.512;-0.382;2023-08-21T04:56:10;18.13;;;7.88;;
30036;SDS011;36325;51.512;-0.382;2023-08-21T04:58:38;19.00;;;7.82;;
30036;SDS011;36325;51.512;-0.382;2023-08-21T05:01:06;17.30;;;7.60;;
30036;SDS011;36325;51.512;-0.382;2023-08-21T05:03:37;19.02;;;7.75;;
30036;SDS011;36325;51.512;-0.382;2023-08-21T05:06:05;14.30;;;6.80;;
30036;SDS011;36325;51.512;-0.382;2023-08-21T05:08:33;14.70;;;6.63;;
30036;SDS011;36325;51.512;-0.382;2023-08-21T05:11:03;14.77;;;6.63;;
30036;SDS011;36325;51.512;-0.382;2023-08-21T05:13:33;16.95;;;6.28;;
30036;SDS011;36325;51.512;-0.382;2023-08-21T05:16:01;18.50;;;5.20;;
30036;SDS011;36325;51.512;-0.382;2023-08-21T05:18:33;16.50;;;6.18;;
30036;SDS011;36325;51.512;-0.382;2023-08-21T05:21:00;24.10;;;6.85;;
30036;SDS011;36325;51.512;-0.382;2023-08-21T05:23:28;18.52;;;6.30;;
30036;SDS011;36325;51.512;-0.382;2023-08-21T05:26:00;16.60;;;5.55;;
30036;SDS011;36325;51.512;-0.382;2023-08-21T05:28:28;18.58;;;6.35;;
30036;SDS011;36325;51.512;-0.382;2023-08-21T05:30:56;23.13;;;5.60;;
30036;SDS011;36325;51.512;-0.382;2023-08-21T05:33:28;13.35;;;5.00;;
30036;SDS011;36325;51.512;-0.382;2023-08-21T05:35:57;14.40;;;5.32;;
30036;SDS011;36325;51.512;-0.382;2023-08-21T05:38:24;18.83;;;5.07;;
30036;SDS011;36325;51.512;-0.382;2023-08-21T05:40:52;15.52;;;4.85;;
30036;SDS011;36325;51.512;-0.382;2023-08-21T05:43:20;13.75;;;4.55;;
30036;SDS011;36325;51.512;-0.382;2023-08-21T05:45:47;16.65;;;4.28;;
30036;SDS011;36325;51.512;-0.382;2023-08-21T05:48:15;15.57;;;4.85;;
30036;SDS011;36325;51.512;-0.382;2023-08-21T05:50:43;25.48;;;5.43;;
30036;SDS011;36325;51.512;-0.382;2023-08-21T05:53:11;17.52;;;6.05;;
30036;SDS011;36325;51.512;-0.382;2023-08-21T05:58:10;22.17;;;6.20;;
30036;SDS011;36325;51.512;-0.382;2023-08-21T06:00:38;15.85;;;6.00;;
30036;SDS011;36325;51.512;-0.382;2023-08-21T06:03:06;26.67;;;6.25;;
30036;SDS011;36325;51.512;-0.382;2023-08-21T06:05:51;9.02;;;4.32;;
30036;SDS011;36325;51.512;-0.382;2023-08-21T06:08:19;14.25;;;6.03;;
30036;SDS011;36325;51.512;-0.382;2023-08-21T06:10:50;18.00;;;6.28;;
30036;SDS011;36325;51.512;-0.382;2023-08-21T06:13:18;12.50;;;5.05;;
30036;SDS011;36325;51.512;-0.382;2023-08-21T06:15:49;12.80;;;5.18;;
30036;SDS011;36325;51.512;-0.382;2023-08-21T06:18:18;17.88;;;5.88;;
30036;SDS011;36325;51.512;-0.382;2023-08-21T06:20:45;17.77;;;6.28;;
30036;SDS011;36325;51.512;-0.382;2023-08-21T06:23:14;15.18;;;5.65;;
30036;SDS011;36325;51.512;-0.382;2023-08-21T06:25:41;19.02;;;6.25;;
30036;SDS011;36325;51.512;-0.382;2023-08-21T06:28:12;14.45;;;4.93;;
30036;SDS011;36325;51.512;-0.382;2023-08-21T06:30:40;9.80;;;4.60;;
30036;SDS011;36325;51.512;-0.382;2023-08-21T06:33:08;22.77;;;5.10;;
30036;SDS011;36325;51.512;-0.382;2023-08-21T06:35:38;16.88;;;6.28;;
30036;SDS011;36325;51.512;-0.382;2023-08-21T06:38:06;12.60;;;4.82;;
30036;SDS011;36325;51.512;-0.382;2023-08-21T06:40:35;15.18;;;4.82;;
30036;SDS011;36325;51.512;-0.382;2023-08-21T06:43:05;16.27;;;5.20;;
30036;SDS011;36325;51.512;-0.382;2023-08-21T06:45:33;16.27;;;6.68;;
30036;SDS011;36325;51.512;-0.382;2023-08-21T06:48:02;14.10;;;5.30;;
30036;SDS011;36325;51.512;-0.382;2023-08-21T06:50:32;9.70;;;4.55;;
30036;SDS011;36325;51.512;-0.382;2023-08-21T06:53:00;14.00;;;5.22;;
30036;SDS011;36325;51.512;-0.382;2023-08-21T06:55:27;17.33;;;5.95;;
30036;SDS011;36325;51.512;-0.382;2023-08-21T06:57:55;18.02;;;6.88;;
30036;SDS011;36325;51.512;-0.382;2023-08-21T07:00:23;12.43;;;6.13;;
30036;SDS011;36325;51.512;-0.382;2023-08-21T07:02:53;11.73;;;5.07;;
30036;SDS011;36325;51.512;-0.382;2023-08-21T07:05:22;12.52;;;5.25;;
30036;SDS011;36325;51.512;-0.382;2023-08-21T07:07:51;10.63;;;5.40;;
30036;SDS011;36325;51.512;-0.382;2023-08-21T07:10:18;15.60;;;4.90;;
30036;SDS011;36325;51.512;-0.382;2023-08-21T07:12:45;18.05;;;5.30;;
30036;SDS011;36325;51.512;-0.382;2023-08-21T07:15:13;13.57;;;4.90;;
30036;SDS011;36325;51.512;-0.382;2023-08-21T07:17:42;16.05;;;5.18;;
30036;SDS011;36325;51.512;-0.382;2023-08-21T07:20:09;14.68;;;4.40;;
30036;SDS011;36325;51.512;-0.382;2023-08-21T07:22:37;19.23;;;5.25;;
30036;SDS011;36325;51.512;-0.382;2023-08-21T07:25:05;19.40;;;3.75;;
30036;SDS011;36325;51.512;-0.382;2023-08-21T07:27:34;14.88;;;4.03;;
30036;SDS011;36325;51.512;-0.382;2023-08-21T07:30:01;14.27;;;3.97;;
30036;SDS011;36325;51.512;-0.382;2023-08-21T07:32:29;7.72;;;3.00;;
30036;SDS011;36325;51.512;-0.382;2023-08-21T07:34:59;11.10;;;3.38;;
30036;SDS011;36325;51.512;-0.382;2023-08-21T07:37:26;13.45;;;3.63;;
30036;SDS011;36325;51.512;-0.382;2023-08-21T07:39:53;9.80;;;3.53;;
30036;SDS011;36325;51.512;-0.382;2023-08-21T07:42:24;11.88;;;3.67;;
30036;SDS011;36325;51.512;-0.382;2023-08-21T07:44:51;10.95;;;4.53;;
30036;SDS011;36325;51.512;-0.382;2023-08-21T07:47:19;14.80;;;3.88;;
30036;SDS011;36325;51.512;-0.382;2023-08-21T07:49:46;16.55;;;4.10;;
30036;SDS011;36325;51.512;-0.382;2023-08-21T07:52:14;10.73;;;3.33;;
30036;SDS011;36325;51.512;-0.382;2023-08-21T07:54:43;8.65;;;3.00;;
30036;SDS011;36325;51.512;-0.382;2023-08-21T07:57:11;9.45;;;3.33;;
30036;SDS011;36325;51.512;-0.382;2023-08-21T07:59:39;13.80;;;2.90;;
30036;SDS011;36325;51.512;-0.382;2023-08-21T08:02:07;13.10;;;2.40;;
30036;SDS011;36325;51.512;-0.382;2023-08-21T08:04:34;8.23;;;3.22;;
30036;SDS011;36325;51.512;-0.382;2023-08-21T08:07:02;12.55;;;2.47;;
30036;SDS011;36325;51.512;-0.382;2023-08-21T08:09:30;4.80;;;2.00;;
30036;SDS011;36325;51.512;-0.382;2023-08-21T08:11:57;3.03;;;1.88;;
30036;SDS011;36325;51.512;-0.382;2023-08-21T08:14:24;8.52;;;3.58;;
30036;SDS011;36325;51.512;-0.382;2023-08-21T08:16:52;5.35;;;1.92;;
30036;SDS011;36325;51.512;-0.382;2023-08-21T08:19:19;5.32;;;2.03;;
30036;SDS011;36325;51.512;-0.382;2023-08-21T08:21:47;10.80;;;1.98;;
30036;SDS011;36325;51.512;-0.382;2023-08-21T08:24:14;8.57;;;2.30;;
30036;SDS011;36325;51.512;-0.382;2023-08-21T08:26:41;5.43;;;1.85;;
30036;SDS011;36325;51.512;-0.382;2023-08-21T08:29:09;10.38;;;1.88;;
30036;SDS011;36325;51.512;-0.382;2023-08-21T08:31:36;5.93;;;2.20;;
30036;SDS011;36325;51.512;-0.382;2023-08-21T08:34:05;6.40;;;1.90;;
30036;SDS011;36325;51.512;-0.382;2023-08-21T08:36:34;6.68;;;1.80;;
30036;SDS011;36325;51.512;-0.382;2023-08-21T08:39:02;4.80;;;1.77;;
30036;SDS011;36325;51.512;-0.382;2023-08-21T08:41:33;9.43;;;1.95;;
30036;SDS011;36325;51.512;-0.382;2023-08-21T08:44:10;3.63;;;1.60;;
30036;SDS011;36325;51.512;-0.382;2023-08-21T08:46:42;8.50;;;1.98;;
30036;SDS011;36325;51.512;-0.382;2023-08-21T08:49:09;6.55;;;1.70;;
30036;SDS011;36325;51.512;-0.382;2023-08-21T08:51:39;3.17;;;1.67;;
30036;SDS011;36325;51.512;-0.382;2023-08-21T08:54:20;5.85;;;1.77;;
30036;SDS011;36325;51.512;-0.382;2023-08-21T08:56:49;10.02;;;1.98;;
30036;SDS011;36325;51.512;-0.382;2023-08-21T08:59:17;7.22;;;1.70;;
30036;SDS011;36325;51.512;-0.382;2023-08-21T09:01:45;7.82;;;2.42;;
30036;SDS011;36325;51.512;-0.382;2023-08-21T09:04:27;6.03;;;1.95;;
30036;SDS011;36325;51.512;-0.382;2023-08-21T09:07:05;7.53;;;1.95;;
30036;SDS011;36325;51.512;-0.382;2023-08-21T09:09:37;11.38;;;2.28;;
30036;SDS011;36325;51.512;-0.382;2023-08-21T09:12:10;7.82;;;1.80;;
30036;SDS011;36325;51.512;-0.382;2023-08-21T09:14:41;9.80;;;1.58;;
30036;SDS011;36325;51.512;-0.382;2023-08-21T09:17:10;6.38;;;1.45;;
30036;SDS011;36325;51.512;-0.382;2023-08-21T09:19:38;11.05;;;1.85;;
30036;SDS011;36325;51.512;-0.382;2023-08-21T09:22:10;8.93;;;2.00;;
30036;SDS011;36325;51.512;-0.382;2023-08-21T09:24:59;4.30;;;1.33;;
30036;SDS011;36325;51.512;-0.382;2023-08-21T09:27:34;9.48;;;1.85;;
30036;SDS011;36325;51.512;-0.382;2023-08-21T09:30:03;5.07;;;1.73;;
30036;SDS011;36325;51.512;-0.382;2023-08-21T09:32:35;7.50;;;2.28;;
30036;SDS011;36325;51.512;-0.382;2023-08-21T09:35:19;4.57;;;1.42;;
30036;SDS011;36325;51.512;-0.382;2023-08-21T09:37:46;3.85;;;1.70;;
30036;SDS011;36325;51.512;-0.382;2023-08-21T09:40:17;4.05;;;1.55;;
30036;SDS011;36325;51.512;-0.382;2023-08-21T09:42:52;6.63;;;1.67;;
30036;SDS011;36325;51.512;-0.382;2023-08-21T09:45:23;13.25;;;3.05;;
30036;SDS011;36325;51.512;-0.382;2023-08-21T09:47:53;8.95;;;2.05;;
30036;SDS011;36325;51.512;-0.382;2023-08-21T09:50:22;5.35;;;1.60;;
30036;SDS011;36325;51.512;-0.382;2023-08-21T09:52:49;6.40;;;1.50;;
30036;SDS011;36325;51.512;-0.382;2023-08-21T09:55:18;7.28;;;1.35;;
30036;SDS011;36325;51.512;-0.382;2023-08-21T09:57:46;7.72;;;1.70;;
30036;SDS011;36325;51.512;-0.382;2023-08-21T10:00:35;5.82;;;1.63;;
30036;SDS011;36325;51.512;-0.382;2023-08-21T10:03:04;5.03;;;2.03;;
30036;SDS011;36325;51.512;-0.382;2023-08-21T10:05:34;5.50;;;1.70;;
30036;SDS011;36325;51.512;-0.382;2023-08-21T10:08:08;10.75;;;2.30;;
30036;SDS011;36325;51.512;-0.382;2023-08-21T10:13:37;4.28;;;1.90;;
30036;SDS011;36325;51.512;-0.382;2023-08-21T10:16:05;2.80;;;1.13;;
30036;SDS011;36325;51.512;-0.382;2023-08-21T10:18:35;3.70;;;1.20;;
30036;SDS011;36325;51.512;-0.382;2023-08-21T10:21:25;3.28;;;1.27;;
30036;SDS011;36325;51.512;-0.382;2023-08-21T10:23:57;7.10;;;1.60;;
30036;SDS011;36325;51.512;-0.382;2023-08-21T10:26:28;5.15;;;1.70;;
30036;SDS011;36325;51.512;-0.382;2023-08-21T10:29:02;10.45;;;1.55;;
30036;SDS011;36325;51.512;-0.382;2023-08-21T10:31:38;3.97;;;1.38;;
30036;SDS011;36325;51.512;-0.382;2023-08-21T10:34:20;8.98;;;1.58;;
30036;SDS011;36325;51.512;-0.382;2023-08-21T10:39:41;7.80;;;2.30;;
30036;SDS011;36325;51.512;-0.382;2023-08-21T10:42:39;5.88;;;1.13;;
30036;SDS011;36325;51.512;-0.382;2023-08-21T10:45:11;5.75;;;1.35;;
30036;SDS011;36325;51.512;-0.382;2023-08-21T10:47:39;5.53;;;1.42;;
30036;SDS011;36325;51.512;-0.382;2023-08-21T10:50:09;4.70;;;1.58;;
30036;SDS011;36325;51.512;-0.382;2023-08-21T10:52:40;6.18;;;1.45;;
30036;SDS011;36325;51.512;-0.382;2023-08-21T10:55:12;6.35;;;1.73;;
30036;SDS011;36325;51.512;-0.382;2023-08-21T10:57:41;5.97;;;1.75;;
30036;SDS011;36325;51.512;-0.382;2023-08-21T11:00:17;10.27;;;2.38;;
30036;SDS011;36325;51.512;-0.382;2023-08-21T11:02:49;5.43;;;1.48;;
30036;SDS011;36325;51.512;-0.382;2023-08-21T11:05:18;5.47;;;1.50;;
30036;SDS011;36325;51.512;-0.382;2023-08-21T11:07:46;3.65;;;1.25;;
30036;SDS011;36325;51.512;-0.382;2023-08-21T11:10:17;6.80;;;1.60;;
30036;SDS011;36325;51.512;-0.382;2023-08-21T11:12:57;4.03;;;1.20;;
30036;SDS011;36325;51.512;-0.382;2023-08-21T11:15:44;3.55;;;1.27;;
30036;SDS011;36325;51.512;-0.382;2023-08-21T11:18:14;16.67;;;2.13;;
30036;SDS011;36325;51.512;-0.382;2023-08-21T11:21:02;5.67;;;1.30;;
30036;SDS011;36325;51.512;-0.382;2023-08-21T11:23:38;14.43;;;1.25;;
30036;SDS011;36325;51.512;-0.382;2023-08-21T11:26:09;1.55;;;0.90;;
30036;SDS011;36325;51.512;-0.382;2023-08-21T11:28:46;3.63;;;1.10;;
30036;SDS011;36325;51.512;-0.382;2023-08-21T11:31:15;3.70;;;1.33;;
30036;SDS011;36325;51.512;-0.382;2023-08-21T11:33:49;5.55;;;0.95;;
30036;SDS011;36325;51.512;-0.382;2023-08-21T11:36:18;5.45;;;1.58;;
30036;SDS011;36325;51.512;-0.382;2023-08-21T11:38:58;8.65;;;1.23;;
30036;SDS011;36325;51.512;-0.382;2023-08-21T11:44:02;19.70;;;1.75;;
30036;SDS011;36325;51.512;-0.382;2023-08-21T11:46:36;4.95;;;1.33;;
30036;SDS011;36325;51.512;-0.382;2023-08-21T11:49:05;11.98;;;1.05;;
30036;SDS011;36325;51.512;-0.382;2023-08-21T11:51:41;5.25;;;1.33;;
30036;SDS011;36325;51.512;-0.382;2023-08-21T11:54:09;7.28;;;1.23;;
30036;SDS011;36325;51.512;-0.382;2023-08-21T11:56:39;9.63;;;1.88;;
30036;SDS011;36325;51.512;-0.382;2023-08-21T11:59:10;12.65;;;1.48;;
30036;SDS011;36325;51.512;-0.382;2023-08-21T12:01:49;3.20;;;1.00;;
30036;SDS011;36325;51.512;-0.382;2023-08-21T12:04:19;4.78;;;1.13;;
30036;SDS011;36325;51.512;-0.382;2023-08-21T12:06:46;9.57;;;1.50;;
30036;SDS011;36325;51.512;-0.382;2023-08-21T12:09:17;5.00;;;1.10;;
30036;SDS011;36325;51.512;-0.382;2023-08-21T12:11:46;4.25;;;1.17;;
30036;SDS011;36325;51.512;-0.382;2023-08-21T12:14:25;4.88;;;1.25;;
30036;SDS011;36325;51.512;-0.382;2023-08-21T12:16:55;4.60;;;1.02;;
30036;SDS011;36325;51.512;-0.382;2023-08-21T12:19:23;5.32;;;1.20;;
30036;SDS011;36325;51.512;-0.382;2023-08-21T12:21:53;5.90;;;1.67;;
30036;SDS011;36325;51.512;-0.382;2023-08-21T12:24:20;6.82;;;1.13;;
30036;SDS011;36325;51.512;-0.382;2023-08-21T12:26:52;3.58;;;0.90;;
30036;SDS011;36325;51.512;-0.382;2023-08-21T12:29:22;6.07;;;1.20;;
30036;SDS011;36325;51.512;-0.382;2023-08-21T12:31:51;3.53;;;0.90;;
30036;SDS011;36325;51.512;-0.382;2023-08-21T12:34:18;5.25;;;1.10;;
30036;SDS011;36325;51.512;-0.382;2023-08-21T12:36:50;3.40;;;0.77;;
30036;SDS011;36325;51.512;-0.382;2023-08-21T12:39:19;4.55;;;1.15;;
30036;SDS011;36325;51.512;-0.382;2023-08-21T12:41:52;6.93;;;1.15;;
30036;SDS011;36325;51.512;-0.382;2023-08-21T12:44:20;6.70;;;1.40;;
30036;SDS011;36325;51.512;-0.382;2023-08-21T12:49:25;41.95;;;5.85;;
30036;SDS011;36325;51.512;-0.382;2023-08-21T12:51:53;4.63;;;0.82;;
30036;SDS011;36325;51.512;-0.382;2023-08-21T12:54:22;4.57;;;1.00;;
30036;SDS011;36325;51.512;-0.382;2023-08-21T12:56:50;5.80;;;0.82;;
30036;SDS011;36325;51.512;-0.382;2023-08-21T12:59:23;3.38;;;1.10;;
30036;SDS011;36325;51.512;-0.382;2023-08-21T13:01:58;3.47;;;0.88;;
30036;SDS011;36325;51.512;-0.382;2023-08-21T13:04:31;1.85;;;1.15;;
30036;SDS011;36325;51.512;-0.382;2023-08-21T13:06:59;7.88;;;1.60;;
30036;SDS011;36325;51.512;-0.382;2023-08-21T13:09:27;50.47;;;4.55;;
30036;SDS011;36325;51.512;-0.382;2023-08-21T13:11:57;6.63;;;1.45;;
30036;SDS011;36325;51.512;-0.382;2023-08-21T13:14:25;3.90;;;0.88;;
30036;SDS011;36325;51.512;-0.382;2023-08-21T13:22:08;2.95;;;0.82;;
30036;SDS011;36325;51.512;-0.382;2023-08-21T13:24:36;26.88;;;2.65;;
30036;SDS011;36325;51.512;-0.382;2023-08-21T13:27:04;1.85;;;0.77;;
30036;SDS011;36325;51.512;-0.382;2023-08-21T13:29:36;3.10;;;0.90;;
30036;SDS011;36325;51.512;-0.382;2023-08-21T13:32:06;6.90;;;1.70;;
30036;SDS011;36325;51.512;-0.382;2023-08-21T13:34:46;6.18;;;0.82;;
30036;SDS011;36325;51.512;-0.382;2023-08-21T13:37:15;1.85;;;0.90;;
30036;SDS011;36325;51.512;-0.382;2023-08-21T13:39:43;5.07;;;1.10;;
30036;SDS011;36325;51.512;-0.382;2023-08-21T13:42:12;9.13;;;1.40;;
30036;SDS011;36325;51.512;-0.382;2023-08-21T13:44:42;4.15;;;1.17;;
30036;SDS011;36325;51.512;-0.382;2023-08-21T13:47:11;6.00;;;1.65;;
30036;SDS011;36325;51.512;-0.382;2023-08-21T13:49:43;3.30;;;1.10;;
30036;SDS011;36325;51.512;-0.382;2023-08-21T13:52:25;6.93;;;1.48;;
30036;SDS011;36325;51.512;-0.382;2023-08-21T13:54:52;9.77;;;1.70;;
30036;SDS011;36325;51.512;-0.382;2023-08-21T13:57:23;3.70;;;1.05;;
30036;SDS011;36325;51.512;-0.382;2023-08-21T13:59:50;3.97;;;1.13;;
30036;SDS011;36325;51.512;-0.382;2023-08-21T14:02:19;5.88;;;1.35;;
30036;SDS011;36325;51.512;-0.382;2023-08-21T14:04:48;1.40;;;1.17;;
30036;SDS011;36325;51.512;-0.382;2023-08-21T14:07:25;2.47;;;1.02;;
30036;SDS011;36325;51.512;-0.382;2023-08-21T14:09:53;5.82;;;1.60;;
30036;SDS011;36325;51.512;-0.382;2023-08-21T14:12:22;2.28;;;1.17;;
30036;SDS011;36325;51.512;-0.382;2023-08-21T14:14:50;2.10;;;1.20;;
30036;SDS011;36325;51.512;-0.382;2023-08-21T14:17:19;5.18;;;1.50;;
30036;SDS011;36325;51.512;-0.382;2023-08-21T14:19:49;70.57;;;5.35;;
30036;SDS011;36325;51.512;-0.382;2023-08-21T14:22:19;3.17;;;1.48;;
30036;SDS011;36325;51.512;-0.382;2023-08-21T14:24:47;5.93;;;1.50;;
30036;SDS011;36325;51.512;-0.382;2023-08-21T14:27:16;11.00;;;2.40;;
30036;SDS011;36325;51.512;-0.382;2023-08-21T14:29:58;3.65;;;1.40;;
30036;SDS011;36325;51.512;-0.382;2023-08-21T14:32:39;2.47;;;1.85;;
30036;SDS011;36325;51.512;-0.382;2023-08-21T14:35:09;4.13;;;1.48;;
30036;SDS011;36325;51.512;-0.382;2023-08-21T14:37:37;3.00;;;1.20;;
30036;SDS011;36325;51.512;-0.382;2023-08-21T14:40:10;1.65;;;0.93;;
30036;SDS011;36325;51.512;-0.382;2023-08-21T14:42:39;4.93;;;1.23;;
30036;SDS011;36325;51.512;-0.382;2023-08-21T14:45:24;24.05;;;1.83;;
30036;SDS011;36325;51.512;-0.382;2023-08-21T14:47:52;2.45;;;0.80;;
30036;SDS011;36325;51.512;-0.382;2023-08-21T14:50:21;4.78;;;0.93;;
30036;SDS011;36325;51.512;-0.382;2023-08-21T14:55:23;2.58;;;0.90;;
30036;SDS011;36325;51.512;-0.382;2023-08-21T14:57:51;3.63;;;1.10;;
30036;SDS011;36325;51.512;-0.382;2023-08-21T15:00:21;5.90;;;1.13;;
30036;SDS011;36325;51.512;-0.382;2023-08-21T15:02:50;4.18;;;1.23;;
30036;SDS011;36325;51.512;-0.382;2023-08-21T15:05:18;2.75;;;0.95;;
30036;SDS011;36325;51.512;-0.382;2023-08-21T15:08:02;2.40;;;1.27;;